Time;durP1;ratioP1;P1;durP2;ratioP2;P2;SDS_P1;SDS_P2;PMS_P1;PMS_P2;Temp;Humidity;BMP_temperature;BMP_pressure;BME280_temperature;BME280_humidity;BME280_pressure;Samples;Min_cycle;Max_cycle;Signal;HPM_P1;HPM_P2
2022/01/07 00:02:19;;;;;;;67.10;34.97;;;;;;;;;;4401050;32;20265;-52
2022/01/07 00:04:45;;;;;;;75.40;32.17;;;;;;;;;;4401344;32;20708;-53
2022/01/07 00:07:10;;;;;;;76.97;35.13;;;;;;;;;;4400515;32;20316;-52
2022/01/07 00:09:39;;;;;;;63.90;30.40;;;;;;;;;;4400805;32;20304;-52
2022/01/07 00:12:05;;;;;;;57.83;25.37;;;;;;;;;;4401014;32;20280;-52
2022/01/07 00:14:31;;;;;;;74.70;30.63;;;;;;;;;;4403388;32;20251;-52
2022/01/07 00:16:56;;;;;;;54.87;28.77;;;;;;;;;;4409078;32;20452;-53
2022/01/07 00:19:22;;;;;;;24.57;13.70;;;;;;;;;;4386123;32;20336;-52
2022/01/07 00:21:48;;;;;;;23.80;12.23;;;;;;;;;;4400600;32;20499;-52
2022/01/07 00:24:13;;;;;;;30.73;15.87;;;;;;;;;;4401237;32;20284;-54
2022/01/07 00:26:39;;;;;;;30.20;16.47;;;;;;;;;;4400361;32;20385;-52
2022/01/07 00:29:04;;;;;;;37.87;16.27;;;;;;;;;;4400713;32;20565;-53
2022/01/07 00:31:30;;;;;;;62.30;32.77;;;;;;;;;;4377679;32;20908;-53
2022/01/07 00:33:55;;;;;;;96.50;48.57;;;;;;;;;;4391182;32;20292;-52
2022/01/07 00:36:20;;;;;;;78.27;40.47;;;;;;;;;;4403559;32;20261;-53
2022/01/07 00:38:46;;;;;;;87.77;41.77;;;;;;;;;;4400358;32;20375;-53
2022/01/07 00:41:12;;;;;;;122.60;58.20;;;;;;;;;;4403302;32;20619;-53
2022/01/07 00:43:37;;;;;;;116.10;55.87;;;;;;;;;;4418014;32;20517;-54
2022/01/07 00:46:03;;;;;;;157.33;68.60;;;;;;;;;;4416058;32;20312;-53
2022/01/07 00:48:28;;;;;;;194.90;83.57;;;;;;;;;;4404874;32;20308;-54
2022/01/07 00:50:54;;;;;;;161.20;75.67;;;;;;;;;;4408921;32;20740;-55
2022/01/07 00:53:19;;;;;;;158.17;73.10;;;;;;;;;;4404202;32;20281;-56
2022/01/07 00:55:45;;;;;;;153.20;68.07;;;;;;;;;;4403546;32;20288;-55
2022/01/07 00:58:11;;;;;;;133.87;60.70;;;;;;;;;;4406273;32;20391;-54
2022/01/07 01:00:36;;;;;;;111.60;51.37;;;;;;;;;;4411255;32;20271;-55
2022/01/07 01:03:02;;;;;;;92.37;41.00;;;;;;;;;;4403565;32;20267;-54
2022/01/07 01:05:29;;;;;;;73.37;34.60;;;;;;;;;;4403354;32;20281;-54
2022/01/07 01:07:55;;;;;;;70.87;32.43;;;;;;;;;;4385743;32;20248;-55
2022/01/07 01:10:24;;;;;;;77.13;35.33;;;;;;;;;;4383907;32;20249;-54
2022/01/07 01:12:50;;;;;;;72.03;32.90;;;;;;;;;;4403400;32;20232;-54
2022/01/07 01:15:20;;;;;;;63.17;27.23;;;;;;;;;;4406321;32;20240;-53
2022/01/07 01:17:46;;;;;;;56.80;24.53;;;;;;;;;;4418633;32;20202;-53
2022/01/07 01:20:12;;;;;;;44.70;21.37;;;;;;;;;;4413481;32;20239;-53
2022/01/07 01:22:38;;;;;;;29.33;17.10;;;;;;;;;;4389565;32;20798;-54
2022/01/07 01:25:05;;;;;;;37.80;16.90;;;;;;;;;;4403584;32;20270;-53
2022/01/07 01:27:31;;;;;;;34.93;17.87;;;;;;;;;;4404255;32;20350;-54
2022/01/07 01:29:56;;;;;;;53.50;22.10;;;;;;;;;;4400143;32;20364;-55
2022/01/07 01:32:22;;;;;;;59.43;24.97;;;;;;;;;;4403551;32;20729;-54
2022/01/07 01:34:47;;;;;;;36.60;18.50;;;;;;;;;;4402914;32;20371;-54
2022/01/07 01:37:14;;;;;;;59.40;27.80;;;;;;;;;;4403258;32;20284;-52
2022/01/07 01:39:39;;;;;;;57.53;28.47;;;;;;;;;;4403079;32;20338;-51
2022/01/07 01:42:05;;;;;;;53.03;27.10;;;;;;;;;;4403310;32;20226;-52
2022/01/07 01:44:30;;;;;;;42.27;21.80;;;;;;;;;;4403052;32;20357;-52
2022/01/07 01:46:56;;;;;;;50.07;24.27;;;;;;;;;;4388991;32;20268;-53
2022/01/07 01:49:22;;;;;;;44.23;21.63;;;;;;;;;;4388273;32;20380;-53
2022/01/07 01:51:49;;;;;;;39.60;20.17;;;;;;;;;;4402348;32;20272;-53
2022/01/07 01:54:14;;;;;;;47.67;24.17;;;;;;;;;;4403342;32;20217;-53
2022/01/07 01:56:41;;;;;;;47.63;26.83;;;;;;;;;;4402797;32;20805;-53
2022/01/07 01:59:07;;;;;;;50.33;27.63;;;;;;;;;;4403360;32;20323;-54
2022/01/07 02:01:34;;;;;;;34.77;19.03;;;;;;;;;;4400877;32;20692;-52
2022/01/07 02:03:59;;;;;;;31.17;17.93;;;;;;;;;;4403001;32;20245;-53
2022/01/07 02:06:24;;;;;;;37.93;19.50;;;;;;;;;;4402686;32;20783;-52
2022/01/07 02:08:51;;;;;;;32.10;16.70;;;;;;;;;;4402623;32;20859;-53
2022/01/07 02:11:16;;;;;;;28.97;15.23;;;;;;;;;;4402238;32;20221;-54
2022/01/07 02:13:43;;;;;;;28.47;13.43;;;;;;;;;;4402756;32;20779;-54
2022/01/07 02:16:08;;;;;;;26.00;13.57;;;;;;;;;;4402376;32;20329;-53
2022/01/07 02:18:34;;;;;;;26.20;15.10;;;;;;;;;;4400923;32;20327;-54
2022/01/07 02:21:00;;;;;;;21.77;11.43;;;;;;;;;;4400183;32;20338;-55
2022/01/07 02:23:26;;;;;;;28.07;15.63;;;;;;;;;;4401121;32;20352;-53
2022/01/07 02:25:52;;;;;;;24.30;13.87;;;;;;;;;;4386607;32;20672;-53
2022/01/07 02:28:18;;;;;;;20.30;12.07;;;;;;;;;;4401381;32;20233;-54
2022/01/07 02:30:44;;;;;;;17.37;10.47;;;;;;;;;;4397052;32;20271;-54
2022/01/07 02:33:09;;;;;;;17.73;11.50;;;;;;;;;;4400931;32;20728;-56
2022/01/07 02:35:35;;;;;;;23.30;13.80;;;;;;;;;;4401239;32;20426;-54
2022/01/07 02:38:02;;;;;;;30.87;15.73;;;;;;;;;;4402288;32;20304;-54
2022/01/07 02:40:28;;;;;;;20.80;13.60;;;;;;;;;;4402426;32;20308;-52
2022/01/07 02:42:53;;;;;;;16.70;11.27;;;;;;;;;;4402109;32;20638;-51
2022/01/07 02:45:20;;;;;;;26.27;16.33;;;;;;;;;;4401740;32;20217;-52
2022/01/07 02:47:52;;;;;;;24.90;15.57;;;;;;;;;;4388227;32;20253;-53
2022/01/07 02:50:20;;;;;;;23.00;13.97;;;;;;;;;;4405459;32;20314;-53
2022/01/07 02:52:45;;;;;;;25.53;16.40;;;;;;;;;;4401936;32;20197;-54
2022/01/07 02:55:11;;;;;;;21.53;13.10;;;;;;;;;;4401828;32;20279;-52
2022/01/07 02:57:37;;;;;;;23.63;11.30;;;;;;;;;;4400546;32;20320;-53
2022/01/07 03:00:05;;;;;;;16.07;9.80;;;;;;;;;;4401714;32;20336;-53
2022/01/07 03:02:30;;;;;;;14.70;9.43;;;;;;;;;;4400689;32;20237;-54
2022/01/07 03:04:56;;;;;;;32.63;16.07;;;;;;;;;;4401834;32;20461;-53
2022/01/07 03:07:21;;;;;;;26.57;14.03;;;;;;;;;;4402284;32;20348;-52
2022/01/07 03:09:47;;;;;;;25.63;14.40;;;;;;;;;;4401692;32;20775;-52
2022/01/07 03:12:12;;;;;;;26.07;15.40;;;;;;;;;;4401306;32;20233;-53
2022/01/07 03:14:37;;;;;;;29.90;15.03;;;;;;;;;;4402535;32;20322;-52
2022/01/07 03:17:03;;;;;;;29.00;15.53;;;;;;;;;;4416137;32;20248;-53
2022/01/07 03:19:29;;;;;;;39.97;18.40;;;;;;;;;;4402628;32;20333;-54
2022/01/07 03:21:54;;;;;;;48.33;23.93;;;;;;;;;;4401560;32;20295;-52
2022/01/07 03:24:20;;;;;;;67.03;26.03;;;;;;;;;;4401527;32;20359;-53
2022/01/07 03:26:45;;;;;;;49.47;26.63;;;;;;;;;;4399578;32;20253;-53
2022/01/07 03:29:11;;;;;;;58.43;25.17;;;;;;;;;;4401879;32;20736;-53
2022/01/07 03:31:36;;;;;;;38.30;19.07;;;;;;;;;;4401115;32;20552;-53
2022/01/07 03:34:02;;;;;;;26.17;13.23;;;;;;;;;;4401166;32;20280;-53
2022/01/07 03:36:27;;;;;;;31.13;16.37;;;;;;;;;;4401681;32;20277;-53
2022/01/07 03:38:53;;;;;;;29.80;16.40;;;;;;;;;;4401501;32;20366;-53
2022/01/07 03:41:19;;;;;;;44.73;20.27;;;;;;;;;;4401256;32;20236;-53
2022/01/07 03:43:45;;;;;;;33.43;18.40;;;;;;;;;;4401349;32;20575;-54
2022/01/07 03:46:11;;;;;;;44.53;21.30;;;;;;;;;;4401021;32;20229;-53
2022/01/07 03:48:36;;;;;;;31.97;17.50;;;;;;;;;;4403902;32;20377;-55
2022/01/07 03:51:02;;;;;;;30.77;16.70;;;;;;;;;;4401138;32;20715;-54
2022/01/07 03:53:27;;;;;;;31.03;16.67;;;;;;;;;;4401250;32;20306;-54
2022/01/07 03:55:53;;;;;;;37.07;18.33;;;;;;;;;;4387139;32;20871;-52
2022/01/07 03:58:19;;;;;;;43.67;21.20;;;;;;;;;;4401438;32;20729;-54
2022/01/07 04:00:44;;;;;;;42.47;22.20;;;;;;;;;;4400875;32;20635;-52
2022/01/07 04:03:12;;;;;;;42.00;19.90;;;;;;;;;;4401728;32;20236;-54
2022/01/07 04:05:38;;;;;;;35.30;16.83;;;;;;;;;;4400541;32;20522;-51
2022/01/07 04:08:05;;;;;;;32.60;17.23;;;;;;;;;;4401390;32;20323;-54
2022/01/07 04:10:31;;;;;;;34.60;12.97;;;;;;;;;;4400783;32;20209;-53
2022/01/07 04:12:56;;;;;;;18.13;10.97;;;;;;;;;;4401126;32;20842;-53
2022/01/07 04:15:23;;;;;;;16.70;11.00;;;;;;;;;;4403299;32;20210;-53
2022/01/07 04:17:51;;;;;;;25.53;10.80;;;;;;;;;;4404287;32;20271;-52
2022/01/07 04:20:19;;;;;;;18.37;11.50;;;;;;;;;;4403845;32;20295;-52
2022/01/07 04:22:45;;;;;;;20.43;11.77;;;;;;;;;;4404485;32;20229;-53
2022/01/07 04:25:18;;;;;;;21.53;11.50;;;;;;;;;;4403672;32;20214;-53
2022/01/07 04:27:52;;;;;;;18.40;11.03;;;;;;;;;;4404241;32;20629;-52
2022/01/07 04:30:20;;;;;;;13.43;8.27;;;;;;;;;;4400901;32;20237;-52
2022/01/07 04:32:46;;;;;;;17.23;8.37;;;;;;;;;;4404000;32;20259;-52
2022/01/07 04:35:13;;;;;;;14.97;8.73;;;;;;;;;;4403401;32;20217;-52
2022/01/07 04:37:39;;;;;;;16.50;9.90;;;;;;;;;;4404116;32;20233;-53
2022/01/07 04:40:08;;;;;;;10.63;7.23;;;;;;;;;;4404145;32;20263;-53
2022/01/07 04:42:33;;;;;;;14.50;7.03;;;;;;;;;;4404176;32;20230;-53
2022/01/07 04:44:58;;;;;;;9.33;5.87;;;;;;;;;;4403100;32;20664;-53
2022/01/07 04:47:24;;;;;;;10.93;7.33;;;;;;;;;;4404474;32;20738;-53
2022/01/07 04:49:50;;;;;;;11.03;6.80;;;;;;;;;;4407502;32;20363;-52
2022/01/07 04:52:17;;;;;;;11.07;7.13;;;;;;;;;;4404015;32;20312;-54
2022/01/07 04:54:43;;;;;;;9.03;5.30;;;;;;;;;;4403404;32;20573;-53
2022/01/07 04:57:09;;;;;;;8.03;4.67;;;;;;;;;;4402656;32;20705;-52
2022/01/07 04:59:34;;;;;;;7.93;5.43;;;;;;;;;;4403739;32;20313;-52
2022/01/07 05:01:59;;;;;;;12.53;6.83;;;;;;;;;;4403307;32;20262;-53
2022/01/07 05:04:25;;;;;;;17.57;11.37;;;;;;;;;;4403787;32;20827;-52
2022/01/07 05:06:52;;;;;;;16.87;8.07;;;;;;;;;;4403046;32;20724;-52
2022/01/07 05:09:19;;;;;;;16.03;7.97;;;;;;;;;;4403444;32;20292;-53
2022/01/07 05:11:46;;;;;;;17.77;7.80;;;;;;;;;;4403356;32;20237;-53
2022/01/07 05:14:11;;;;;;;14.60;6.63;;;;;;;;;;4403355;32;20257;-52
2022/01/07 05:16:37;;;;;;;9.07;6.50;;;;;;;;;;4402610;32;20332;-54
2022/01/07 05:19:03;;;;;;;13.27;6.70;;;;;;;;;;4403139;32;20371;-53
2022/01/07 05:21:29;;;;;;;9.13;5.50;;;;;;;;;;4403528;32;20264;-52
2022/01/07 05:23:54;;;;;;;16.50;9.73;;;;;;;;;;4403602;32;20772;-54
2022/01/07 05:26:20;;;;;;;19.37;10.50;;;;;;;;;;4402027;32;20245;-52
2022/01/07 05:28:45;;;;;;;11.27;6.73;;;;;;;;;;4389085;32;20395;-53
2022/01/07 05:31:11;;;;;;;9.40;6.43;;;;;;;;;;4400219;32;20233;-53
2022/01/07 05:33:36;;;;;;;19.00;8.97;;;;;;;;;;4403055;32;20358;-52
2022/01/07 05:36:02;;;;;;;24.13;12.67;;;;;;;;;;4402543;32;20405;-53
2022/01/07 05:38:27;;;;;;;44.20;25.27;;;;;;;;;;4403092;32;20319;-54
2022/01/07 05:40:53;;;;;;;41.83;23.90;;;;;;;;;;4402814;32;20359;-53
2022/01/07 05:43:18;;;;;;;40.80;22.67;;;;;;;;;;4403026;32;20292;-54
2022/01/07 05:45:45;;;;;;;45.60;25.50;;;;;;;;;;4402578;32;20222;-53
2022/01/07 05:48:12;;;;;;;45.37;24.20;;;;;;;;;;4402557;32;20571;-54
2022/01/07 05:50:37;;;;;;;37.63;23.60;;;;;;;;;;4390700;32;20267;-53
2022/01/07 05:53:03;;;;;;;40.97;22.07;;;;;;;;;;4402517;32;20324;-51
2022/01/07 05:55:28;;;;;;;41.70;21.67;;;;;;;;;;4402559;32;20214;-53
2022/01/07 05:57:54;;;;;;;41.77;22.77;;;;;;;;;;4402148;32;20284;-52
2022/01/07 06:00:19;;;;;;;37.47;22.33;;;;;;;;;;4401840;32;20659;-54
2022/01/07 06:02:45;;;;;;;32.40;20.67;;;;;;;;;;4402120;32;20650;-52
2022/01/07 06:05:11;;;;;;;27.10;16.40;;;;;;;;;;4402134;32;20678;-53
2022/01/07 06:07:37;;;;;;;23.60;9.80;;;;;;;;;;4401436;32;20947;-53
2022/01/07 06:10:04;;;;;;;10.43;6.93;;;;;;;;;;4401710;32;20574;-52
2022/01/07 06:12:30;;;;;;;14.53;7.03;;;;;;;;;;4399910;32;20440;-53
2022/01/07 06:14:55;;;;;;;15.73;6.73;;;;;;;;;;4401094;32;20348;-53
2022/01/07 06:17:21;;;;;;;8.43;5.47;;;;;;;;;;4414195;32;20229;-53
2022/01/07 06:19:46;;;;;;;7.30;5.37;;;;;;;;;;4398224;32;20336;-52
2022/01/07 06:22:11;;;;;;;14.27;9.27;;;;;;;;;;4399024;32;20327;-52
2022/01/07 06:24:37;;;;;;;22.07;14.70;;;;;;;;;;4399192;32;20672;-52
2022/01/07 06:27:03;;;;;;;15.47;10.97;;;;;;;;;;4400498;32;20348;-54
2022/01/07 06:29:28;;;;;;;22.57;9.23;;;;;;;;;;4400489;32;20643;-54
2022/01/07 06:31:53;;;;;;;24.87;12.47;;;;;;;;;;4400518;32;20260;-54
2022/01/07 06:34:20;;;;;;;30.03;13.63;;;;;;;;;;4400557;32;20300;-54
2022/01/07 06:36:47;;;;;;;30.33;14.20;;;;;;;;;;4398856;32;20252;-53
2022/01/07 06:39:14;;;;;;;22.70;12.50;;;;;;;;;;4400311;32;20245;-54
2022/01/07 06:41:39;;;;;;;21.97;7.97;;;;;;;;;;4400565;32;20725;-52
2022/01/07 06:44:05;;;;;;;13.50;8.23;;;;;;;;;;4400563;32;20347;-53
2022/01/07 06:46:30;;;;;;;18.50;11.83;;;;;;;;;;4400333;32;20257;-53
2022/01/07 06:48:56;;;;;;;12.37;8.67;;;;;;;;;;4399732;32;20361;-54
2022/01/07 06:51:21;;;;;;;16.10;10.17;;;;;;;;;;4400525;32;20233;-53
2022/01/07 06:53:46;;;;;;;12.50;6.97;;;;;;;;;;4400518;32;20334;-52
2022/01/07 06:56:12;;;;;;;11.50;6.97;;;;;;;;;;4389533;32;20209;-52
2022/01/07 06:58:37;;;;;;;12.30;6.97;;;;;;;;;;4370963;32;20297;-52
2022/01/07 07:01:05;;;;;;;8.93;5.90;;;;;;;;;;4394073;32;20379;-53
2022/01/07 07:03:31;;;;;;;6.77;5.17;;;;;;;;;;4400320;32;20241;-53
2022/01/07 07:05:56;;;;;;;12.93;5.60;;;;;;;;;;4400062;32;20698;-52
2022/01/07 07:08:22;;;;;;;7.23;4.80;;;;;;;;;;4398805;32;20293;-52
2022/01/07 07:10:47;;;;;;;7.13;4.73;;;;;;;;;;4399320;32;20728;-54
2022/01/07 07:13:13;;;;;;;6.93;4.73;;;;;;;;;;4385970;32;20326;-55
2022/01/07 07:15:38;;;;;;;9.40;5.57;;;;;;;;;;4399198;32;20245;-53
2022/01/07 07:18:04;;;;;;;11.77;6.30;;;;;;;;;;4400455;32;20314;-53
2022/01/07 07:20:29;;;;;;;8.20;6.03;;;;;;;;;;4395834;32;20244;-53
2022/01/07 07:22:54;;;;;;;29.10;13.57;;;;;;;;;;4396465;32;20298;-54
2022/01/07 07:25:23;;;;;;;63.17;24.10;;;;;;;;;;4390066;32;20246;-53
2022/01/07 07:27:48;;;;;;;25.30;11.53;;;;;;;;;;4376174;32;20271;-54
2022/01/07 07:30:14;;;;;;;16.70;9.63;;;;;;;;;;4395606;32;20217;-54
2022/01/07 07:32:39;;;;;;;17.00;10.47;;;;;;;;;;4409348;32;20344;-53
2022/01/07 07:37:40;;;;;;;9.80;6.90;;;;;;;;;;4399865;32;20229;-53
2022/01/07 07:40:07;;;;;;;11.47;6.37;;;;;;;;;;4404961;32;20271;-53
2022/01/07 07:42:32;;;;;;;9.13;5.60;;;;;;;;;;4385735;32;20340;-52
2022/01/07 07:44:58;;;;;;;12.63;6.33;;;;;;;;;;4399601;32;20209;-54
2022/01/07 07:47:23;;;;;;;15.77;7.60;;;;;;;;;;4400366;32;20267;-54
2022/01/07 07:49:49;;;;;;;15.50;8.50;;;;;;;;;;4398144;32;20808;-52
2022/01/07 07:52:15;;;;;;;23.27;12.33;;;;;;;;;;4396664;32;20679;-53
2022/01/07 07:54:41;;;;;;;17.27;9.53;;;;;;;;;;4397657;32;20612;-53
2022/01/07 07:57:07;;;;;;;14.33;7.67;;;;;;;;;;4398218;32;20698;-54
2022/01/07 07:59:32;;;;;;;16.80;7.47;;;;;;;;;;4383714;32;20316;-54
2022/01/07 08:02:00;;;;;;;25.77;12.00;;;;;;;;;;4396931;32;20334;-52
2022/01/07 08:04:26;;;;;;;25.20;12.67;;;;;;;;;;4394991;32;20630;-51
2022/01/07 08:06:51;;;;;;;34.90;16.63;;;;;;;;;;4393837;32;20284;-52
2022/01/07 08:09:17;;;;;;;15.13;10.03;;;;;;;;;;4398006;32;20384;-52
2022/01/07 08:11:57;;;;;;;20.97;9.90;;;;;;;;;;4395963;32;20715;-52
2022/01/07 08:17:08;;;;;;;15.37;9.60;;;;;;;;;;4396058;32;20288;-51
2022/01/07 08:19:34;;;;;;;12.70;8.97;;;;;;;;;;4395974;32;20233;-52
2022/01/07 08:22:00;;;;;;;11.23;7.93;;;;;;;;;;4398396;32;20329;-53
2022/01/07 08:24:25;;;;;;;9.80;6.47;;;;;;;;;;4398979;32;20303;-52
2022/01/07 08:26:51;;;;;;;7.13;4.33;;;;;;;;;;4398928;32;20297;-52
2022/01/07 08:29:19;;;;;;;7.93;5.40;;;;;;;;;;4383548;32;20308;-54
2022/01/07 08:36:54;;;;;;;17.33;9.53;;;;;;;;;;4398736;32;20287;-52
2022/01/07 08:39:21;;;;;;;10.77;6.27;;;;;;;;;;4399530;32;20342;-53
2022/01/07 08:41:47;;;;;;;23.70;12.83;;;;;;;;;;4398711;32;20347;-52
2022/01/07 08:44:12;;;;;;;20.63;12.17;;;;;;;;;;4398820;32;20679;-53
2022/01/07 08:46:38;;;;;;;10.77;7.53;;;;;;;;;;4398921;32;20551;-51
2022/01/07 08:49:05;;;;;;;20.33;11.03;;;;;;;;;;4385800;32;20579;-53
2022/01/07 08:51:30;;;;;;;26.00;14.17;;;;;;;;;;4401738;32;20311;-52
2022/01/07 08:53:56;;;;;;;16.03;7.47;;;;;;;;;;4398564;32;20315;-52
2022/01/07 08:56:26;;;;;;;6.10;4.07;;;;;;;;;;4397052;32;20668;-53
2022/01/07 08:58:53;;;;;;;8.23;4.53;;;;;;;;;;4398647;32;20238;-52
2022/01/07 09:01:19;;;;;;;5.37;4.70;;;;;;;;;;4399334;32;20643;-52
2022/01/07 09:03:44;;;;;;;7.90;4.23;;;;;;;;;;4401663;32;20693;-53
2022/01/07 09:06:10;;;;;;;5.83;3.83;;;;;;;;;;4401844;32;20245;-52
2022/01/07 09:08:35;;;;;;;6.63;4.13;;;;;;;;;;4388485;32;20443;-52
2022/01/07 09:11:01;;;;;;;15.73;8.20;;;;;;;;;;4401730;32;20253;-53
2022/01/07 09:13:27;;;;;;;23.60;12.73;;;;;;;;;;4401963;32;20308;-54
2022/01/07 09:15:52;;;;;;;12.93;7.83;;;;;;;;;;4397349;32;20716;-52
2022/01/07 09:18:20;;;;;;;16.43;8.40;;;;;;;;;;4417272;32;20717;-53
2022/01/07 09:20:46;;;;;;;17.93;10.43;;;;;;;;;;4404372;32;20296;-52
2022/01/07 09:23:12;;;;;;;7.00;5.17;;;;;;;;;;4387662;32;20331;-54
2022/01/07 09:25:38;;;;;;;6.87;4.60;;;;;;;;;;4401785;32;20237;-52
2022/01/07 09:28:05;;;;;;;7.23;4.37;;;;;;;;;;4402149;32;20324;-53
2022/01/07 09:30:31;;;;;;;7.57;4.27;;;;;;;;;;4398332;32;20721;-52
2022/01/07 09:32:56;;;;;;;7.47;4.90;;;;;;;;;;4401703;32;20312;-52
2022/01/07 09:35:23;;;;;;;9.53;6.47;;;;;;;;;;4401211;32;20237;-51
2022/01/07 09:37:50;;;;;;;7.40;5.77;;;;;;;;;;4401724;32;20229;-52
2022/01/07 09:40:17;;;;;;;3.73;2.63;;;;;;;;;;4401044;32;20233;-53
2022/01/07 09:42:59;;;;;;;5.77;3.67;;;;;;;;;;4400984;32;20299;-53
2022/01/07 09:45:26;;;;;;;6.03;3.40;;;;;;;;;;4400404;32;20221;-52
2022/01/07 09:47:53;;;;;;;8.00;4.77;;;;;;;;;;4401021;32;20639;-52
2022/01/07 09:50:19;;;;;;;24.97;9.87;;;;;;;;;;4401612;32;20333;-51
2022/01/07 09:52:45;;;;;;;9.73;5.33;;;;;;;;;;4387179;32;20331;-52
2022/01/07 09:55:11;;;;;;;16.40;7.33;;;;;;;;;;4401207;32;20238;-51
2022/01/07 09:57:36;;;;;;;10.47;6.47;;;;;;;;;;4401369;32;20354;-52
2022/01/07 10:00:03;;;;;;;8.47;5.93;;;;;;;;;;4401502;32;20549;-52
2022/01/07 10:02:29;;;;;;;22.20;10.00;;;;;;;;;;4401599;32;20332;-54
2022/01/07 10:04:54;;;;;;;10.43;7.17;;;;;;;;;;4386192;32;20321;-53
2022/01/07 10:07:25;;;;;;;10.83;5.33;;;;;;;;;;4393308;32;20229;-53
2022/01/07 10:10:02;;;;;;;20.10;8.67;;;;;;;;;;4386786;32;20890;-53
2022/01/07 10:12:30;;;;;;;17.37;8.70;;;;;;;;;;4400248;32;20252;-52
2022/01/07 10:15:08;;;;;;;12.10;5.83;;;;;;;;;;4393436;32;20248;-51
2022/01/07 10:17:34;;;;;;;6.57;4.70;;;;;;;;;;4400755;32;20244;-53
2022/01/07 10:20:00;;;;;;;9.83;6.17;;;;;;;;;;4399486;32;20317;-53
2022/01/07 10:22:26;;;;;;;15.83;7.73;;;;;;;;;;4399865;32;20343;-52
2022/01/07 10:25:00;;;;;;;15.40;7.73;;;;;;;;;;4399051;32;20242;-52
2022/01/07 10:27:34;;;;;;;10.53;5.80;;;;;;;;;;4397182;32;20249;-53
2022/01/07 10:29:59;;;;;;;8.40;5.90;;;;;;;;;;4380501;32;20275;-52
2022/01/07 10:32:32;;;;;;;25.43;11.53;;;;;;;;;;4398222;32;20576;-52
2022/01/07 10:35:07;;;;;;;17.50;10.17;;;;;;;;;;4396864;32;20348;-52
2022/01/07 10:37:48;;;;;;;30.60;15.73;;;;;;;;;;4398965;32;20225;-52
2022/01/07 10:40:23;;;;;;;9.87;6.70;;;;;;;;;;4384900;32;20269;-52
2022/01/07 10:42:48;;;;;;;16.33;8.70;;;;;;;;;;4385634;32;20232;-54
2022/01/07 10:45:14;;;;;;;19.17;11.10;;;;;;;;;;4385696;32;20687;-54
2022/01/07 10:47:39;;;;;;;23.10;14.03;;;;;;;;;;4384711;32;20742;-52
2022/01/07 10:50:17;;;;;;;13.60;8.60;;;;;;;;;;4398130;32;20206;-53
2022/01/07 10:52:43;;;;;;;19.17;9.30;;;;;;;;;;4399657;32;20598;-52
2022/01/07 10:55:11;;;;;;;20.37;11.80;;;;;;;;;;4400142;32;20269;-51
2022/01/07 10:57:43;;;;;;;9.97;6.57;;;;;;;;;;4400942;32;20630;-53
2022/01/07 11:00:13;;;;;;;14.57;8.20;;;;;;;;;;4400771;32;20755;-53
2022/01/07 11:02:42;;;;;;;14.40;9.13;;;;;;;;;;4401181;32;20267;-53
2022/01/07 11:05:08;;;;;;;18.57;8.90;;;;;;;;;;4401236;32;20339;-52
2022/01/07 11:07:35;;;;;;;13.97;7.03;;;;;;;;;;4401874;32;20702;-52
2022/01/07 11:10:02;;;;;;;12.53;7.73;;;;;;;;;;4400414;32;20240;-51
2022/01/07 11:12:30;;;;;;;14.67;8.90;;;;;;;;;;4402677;32;20535;-51
2022/01/07 11:14:56;;;;;;;16.73;7.70;;;;;;;;;;4388622;32;20712;-54
2022/01/07 11:17:22;;;;;;;19.90;8.77;;;;;;;;;;4399887;32;20221;-53
2022/01/07 11:19:56;;;;;;;12.20;6.07;;;;;;;;;;4400531;32;20338;-53
2022/01/07 11:22:22;;;;;;;15.37;8.00;;;;;;;;;;4401272;32;20253;-52
2022/01/07 11:25:04;;;;;;;8.13;5.33;;;;;;;;;;4400161;32;20360;-53
2022/01/07 11:27:29;;;;;;;16.63;8.87;;;;;;;;;;4411568;32;20260;-52
2022/01/07 11:30:07;;;;;;;14.77;8.57;;;;;;;;;;4396367;32;20705;-52
2022/01/07 11:32:36;;;;;;;11.00;6.50;;;;;;;;;;4401002;32;20298;-51
2022/01/07 11:35:17;;;;;;;9.43;6.47;;;;;;;;;;4400398;32;20566;-51
2022/01/07 11:37:43;;;;;;;10.97;6.90;;;;;;;;;;4399334;32;20308;-53
2022/01/07 11:40:09;;;;;;;13.13;8.90;;;;;;;;;;4400356;32;20206;-51
2022/01/07 11:42:47;;;;;;;12.07;7.57;;;;;;;;;;4400034;32;20312;-52
2022/01/07 11:45:29;;;;;;;11.23;6.40;;;;;;;;;;4399999;32;20237;-52
2022/01/07 11:48:09;;;;;;;7.47;5.20;;;;;;;;;;4399333;32;20429;-52
2022/01/07 11:50:55;;;;;;;8.43;5.47;;;;;;;;;;4400462;32;20239;-52
2022/01/07 11:53:28;;;;;;;7.67;4.87;;;;;;;;;;4399819;32;20702;-52
2022/01/07 11:56:01;;;;;;;6.83;4.53;;;;;;;;;;4400285;32;20604;-51
2022/01/07 11:58:40;;;;;;;9.53;5.83;;;;;;;;;;4399440;32;20214;-53
2022/01/07 12:01:07;;;;;;;39.53;21.97;;;;;;;;;;4374864;32;20238;-53
2022/01/07 12:03:32;;;;;;;46.83;26.20;;;;;;;;;;4398871;32;20248;-53
2022/01/07 12:05:58;;;;;;;10.03;7.27;;;;;;;;;;4399413;32;20244;-52
2022/01/07 12:08:40;;;;;;;14.83;8.10;;;;;;;;;;4386338;32;20372;-51
2022/01/07 12:11:10;;;;;;;11.57;5.07;;;;;;;;;;4397462;32;20723;-51
2022/01/07 12:13:39;;;;;;;13.03;8.10;;;;;;;;;;4398873;32;20302;-51
2022/01/07 12:16:06;;;;;;;8.23;5.90;;;;;;;;;;4402538;32;20229;-52
2022/01/07 12:18:34;;;;;;;14.20;7.50;;;;;;;;;;4403519;32;20209;-51
2022/01/07 12:20:59;;;;;;;7.13;5.37;;;;;;;;;;4400276;32;20230;-52
2022/01/07 12:23:25;;;;;;;8.23;5.80;;;;;;;;;;4386410;32;20804;-52
2022/01/07 12:25:52;;;;;;;10.50;6.90;;;;;;;;;;4400289;32;20229;-51
2022/01/07 12:28:18;;;;;;;12.67;7.47;;;;;;;;;;4399949;32;20276;-53
2022/01/07 12:30:45;;;;;;;7.90;6.10;;;;;;;;;;4396729;32;20237;-55
2022/01/07 12:33:11;;;;;;;15.03;9.23;;;;;;;;;;4405549;32;20264;-51
2022/01/07 12:35:38;;;;;;;10.23;5.90;;;;;;;;;;4387170;32;20699;-53
2022/01/07 12:38:16;;;;;;;12.60;7.80;;;;;;;;;;4402680;32;20202;-54
2022/01/07 12:40:49;;;;;;;11.23;6.80;;;;;;;;;;4409773;32;20851;-54
2022/01/07 12:43:15;;;;;;;8.53;6.33;;;;;;;;;;4398432;32;20681;-52
2022/01/07 12:45:41;;;;;;;11.27;6.13;;;;;;;;;;4392820;32;20324;-52
2022/01/07 12:48:06;;;;;;;11.00;7.73;;;;;;;;;;4403486;32;20318;-54
2022/01/07 12:50:36;;;;;;;14.63;7.97;;;;;;;;;;4402099;32;20296;-53
2022/01/07 12:53:05;;;;;;;7.63;5.63;;;;;;;;;;4397406;32;20231;-53
2022/01/07 12:55:30;;;;;;;18.40;11.07;;;;;;;;;;4394478;32;20314;-52
2022/01/07 12:58:02;;;;;;;21.63;12.03;;;;;;;;;;4402940;32;20673;-52
2022/01/07 13:00:33;;;;;;;20.63;11.13;;;;;;;;;;4399826;32;20312;-52
2022/01/07 13:03:02;;;;;;;23.17;10.30;;;;;;;;;;4399886;32;20225;-53
2022/01/07 13:05:37;;;;;;;17.73;11.63;;;;;;;;;;4397140;32;20698;-52
2022/01/07 13:08:09;;;;;;;14.77;9.87;;;;;;;;;;4398914;32;20432;-52
2022/01/07 13:10:35;;;;;;;15.60;10.83;;;;;;;;;;4398619;32;20252;-52
2022/01/07 13:13:04;;;;;;;19.43;11.30;;;;;;;;;;4400997;32;20928;-52
2022/01/07 13:15:51;;;;;;;23.23;11.07;;;;;;;;;;4398035;32;20252;-53
2022/01/07 13:18:20;;;;;;;15.77;8.13;;;;;;;;;;4401788;32;20831;-51
2022/01/07 13:21:04;;;;;;;22.83;12.40;;;;;;;;;;4398267;32;20328;-52
2022/01/07 13:23:32;;;;;;;15.43;10.07;;;;;;;;;;4400025;32;20277;-52
2022/01/07 13:25:58;;;;;;;26.83;14.37;;;;;;;;;;4400127;32;20638;-52
2022/01/07 13:28:30;;;;;;;13.17;8.43;;;;;;;;;;4384969;32;20336;-55
2022/01/07 13:30:56;;;;;;;15.97;10.17;;;;;;;;;;4395376;32;20288;-54
2022/01/07 13:33:25;;;;;;;12.10;8.03;;;;;;;;;;4398129;32;20296;-54
2022/01/07 13:35:56;;;;;;;14.87;9.67;;;;;;;;;;4399518;32;20265;-55
2022/01/07 13:38:22;;;;;;;14.20;7.37;;;;;;;;;;4400873;32;20755;-55
2022/01/07 13:40:47;;;;;;;16.70;8.87;;;;;;;;;;4386189;32;20642;-54
2022/01/07 13:43:15;;;;;;;17.90;11.37;;;;;;;;;;4400443;32;20386;-56
2022/01/07 13:45:43;;;;;;;18.40;10.40;;;;;;;;;;4399802;32;20267;-54
2022/01/07 13:48:10;;;;;;;27.00;13.77;;;;;;;;;;4401690;32;20259;-53
2022/01/07 13:50:39;;;;;;;22.43;11.97;;;;;;;;;;4400362;32;20275;-53
2022/01/07 13:53:19;;;;;;;16.73;10.40;;;;;;;;;;4388074;32;20228;-53
2022/01/07 13:55:46;;;;;;;25.77;11.77;;;;;;;;;;4401468;32;20240;-54
2022/01/07 13:58:19;;;;;;;32.37;14.27;;;;;;;;;;4400732;32;20275;-54
2022/01/07 14:00:47;;;;;;;22.53;14.27;;;;;;;;;;4401363;32;20298;-54
2022/01/07 14:03:16;;;;;;;16.80;12.00;;;;;;;;;;4388487;32;20240;-53
2022/01/07 14:05:43;;;;;;;21.77;12.30;;;;;;;;;;4389707;32;20340;-55
2022/01/07 14:08:11;;;;;;;48.47;29.70;;;;;;;;;;4398446;32;20280;-54
2022/01/07 14:10:39;;;;;;;30.17;17.50;;;;;;;;;;4397888;32;20237;-54
2022/01/07 14:13:16;;;;;;;65.20;30.20;;;;;;;;;;4379856;32;20318;-53
2022/01/07 14:15:44;;;;;;;50.30;28.03;;;;;;;;;;4394765;32;20364;-54
2022/01/07 14:18:09;;;;;;;83.30;44.43;;;;;;;;;;4395991;32;20237;-53
2022/01/07 14:20:45;;;;;;;56.47;30.00;;;;;;;;;;4389338;32;20638;-53
2022/01/07 14:23:23;;;;;;;66.50;34.50;;;;;;;;;;4390567;32;20316;-52
2022/01/07 14:25:50;;;;;;;43.93;23.23;;;;;;;;;;4379591;32;20338;-53
2022/01/07 14:28:19;;;;;;;33.57;17.77;;;;;;;;;;4398598;32;20308;-53
2022/01/07 14:30:44;;;;;;;25.47;16.50;;;;;;;;;;4394791;32;20234;-52
2022/01/07 14:33:10;;;;;;;28.20;15.57;;;;;;;;;;4385888;32;20803;-52
2022/01/07 14:35:37;;;;;;;36.37;17.70;;;;;;;;;;4395258;32;20374;-52